createdAt,value
2018-09-05T00:00:38.022Z,100.00
2018-09-05T00:03:07.432Z,100.00
2018-09-05T00:05:37.513Z,100.00
2018-09-05T00:08:06.927Z,100.00
2018-09-05T00:10:37.457Z,100.00
2018-09-05T00:13:06.795Z,100.00
2018-09-05T00:15:36.056Z,100.00
2018-09-05T00:18:05.503Z,100.00
2018-09-05T00:20:35.697Z,100.00
2018-09-05T00:23:05.113Z,100.00
2018-09-05T00:25:34.403Z,100.00
2018-09-05T00:28:03.739Z,100.00
2018-09-05T00:30:33.339Z,100.00
2018-09-05T00:33:02.800Z,100.00
2018-09-05T00:35:32.028Z,100.00
2018-09-05T00:38:01.360Z,100.00
2018-09-05T00:40:31.306Z,100.00
2018-09-05T00:43:00.654Z,100.00
2018-09-05T00:45:30.165Z,100.00
2018-09-05T00:47:59.574Z,100.00
2018-09-05T00:50:30.080Z,100.00
2018-09-05T00:52:59.743Z,100.00
2018-09-05T00:55:29.899Z,100.00
2018-09-05T00:57:59.508Z,100.00
2018-09-05T01:00:30.046Z,100.00
2018-09-05T01:02:59.715Z,100.00
2018-09-05T01:05:29.231Z,100.00
2018-09-05T01:07:58.636Z,100.00
2018-09-05T01:10:28.030Z,100.00
2018-09-05T01:12:57.523Z,100.00
2018-09-05T01:15:26.878Z,100.00
2018-09-05T01:17:56.240Z,100.00
2018-09-05T01:20:26.250Z,100.00
2018-09-05T01:22:55.674Z,100.00
2018-09-05T01:25:25.376Z,100.00
2018-09-05T01:27:54.764Z,100.00
2018-09-05T01:30:27.953Z,100.00
2018-09-05T01:32:59.243Z,100.00
2018-09-05T01:35:29.453Z,100.00
2018-09-05T01:38:01.133Z,100.00
2018-09-05T01:40:31.414Z,100.00
2018-09-05T01:43:00.781Z,100.00
2018-09-05T01:45:30.021Z,100.00
2018-09-05T01:47:59.425Z,100.00
2018-09-05T01:50:33.746Z,100.00
2018-09-05T01:53:03.109Z,100.00
2018-09-05T01:55:32.535Z,100.00
2018-09-05T01:58:01.878Z,100.00
2018-09-05T02:00:35.316Z,100.00
2018-09-05T02:03:05.555Z,100.00
2018-09-05T02:05:36.013Z,100.00
2018-09-05T02:08:05.466Z,100.00
2018-09-05T02:10:35.935Z,100.00
2018-09-05T02:13:06.016Z,100.00
2018-09-05T02:15:35.511Z,100.00
2018-09-05T02:18:04.906Z,100.00
2018-09-05T02:20:34.053Z,100.00
2018-09-05T02:23:03.491Z,100.00
2018-09-05T02:25:33.083Z,100.00
2018-09-05T02:28:02.484Z,100.00
2018-09-05T02:30:32.837Z,100.00
2018-09-05T02:33:02.089Z,100.00
2018-09-05T02:35:32.062Z,100.00
2018-09-05T02:38:01.548Z,100.00
2018-09-05T02:40:31.149Z,100.00
2018-09-05T02:43:00.614Z,100.00
2018-09-05T02:45:30.816Z,100.00
2018-09-05T02:48:00.102Z,100.00
2018-09-05T02:50:29.339Z,100.00
2018-09-05T02:52:58.665Z,100.00
2018-09-05T02:55:33.008Z,100.00
2018-09-05T02:58:03.492Z,100.00
2018-09-05T03:00:33.808Z,100.00
2018-09-05T03:03:03.314Z,100.00
2018-09-05T03:05:32.966Z,100.00
2018-09-05T03:08:02.557Z,100.00
2018-09-05T03:10:32.103Z,100.00
2018-09-05T03:13:01.480Z,100.00
2018-09-05T03:15:31.190Z,100.00
2018-09-05T03:18:00.902Z,100.00
2018-09-05T03:20:30.204Z,100.00
2018-09-05T03:22:59.461Z,100.00
2018-09-05T03:25:28.905Z,100.00
2018-09-05T03:27:58.672Z,100.00
2018-09-05T03:30:28.608Z,100.00
2018-09-05T03:32:58.009Z,100.00
2018-09-05T03:35:28.063Z,100.00
2018-09-05T03:37:57.765Z,100.00
2018-09-05T03:40:27.491Z,100.00
2018-09-05T03:42:57.072Z,100.00
2018-09-05T03:45:27.304Z,100.00
2018-09-05T03:47:57.752Z,100.00
2018-09-05T03:50:27.371Z,100.00
2018-09-05T03:52:56.561Z,100.00
2018-09-05T03:55:26.070Z,100.00
2018-09-05T03:57:55.784Z,100.00
2018-09-05T04:00:25.320Z,100.00
2018-09-05T04:02:54.752Z,100.00
2018-09-05T04:05:24.905Z,100.00
2018-09-05T04:07:54.348Z,100.00
2018-09-05T04:10:23.632Z,100.00
2018-09-05T04:12:53.303Z,100.00
2018-09-05T04:15:22.994Z,100.00
2018-09-05T04:17:52.522Z,100.00
2018-09-05T04:20:22.921Z,100.00
2018-09-05T04:22:52.402Z,100.00
2018-09-05T04:25:21.866Z,100.00
2018-09-05T04:27:51.381Z,100.00
2018-09-05T04:30:20.943Z,100.00
2018-09-05T04:32:50.325Z,100.00
2018-09-05T04:35:19.662Z,100.00
2018-09-05T04:37:49.107Z,100.00
2018-09-05T04:40:18.392Z,100.00
2018-09-05T04:42:47.818Z,100.00
2018-09-05T04:45:17.353Z,100.00
2018-09-05T04:47:46.794Z,100.00
2018-09-05T04:50:16.220Z,100.00
2018-09-05T04:52:45.738Z,100.00
2018-09-05T04:55:15.347Z,100.00
2018-09-05T04:57:44.770Z,100.00
2018-09-05T05:00:14.240Z,100.00
2018-09-05T05:02:44.749Z,100.00
2018-09-05T05:05:14.399Z,100.00
2018-09-05T05:07:45.915Z,100.00
2018-09-05T05:10:18.306Z,100.00
2018-09-05T05:12:47.591Z,100.00
2018-09-05T05:15:18.274Z,100.00
2018-09-05T05:17:48.747Z,100.00
2018-09-05T05:20:18.950Z,100.00
2018-09-05T05:22:48.770Z,100.00
2018-09-05T05:25:19.187Z,100.00
2018-09-05T05:27:48.930Z,100.00
2018-09-05T05:30:18.470Z,100.00
2018-09-05T05:32:48.252Z,100.00
2018-09-05T05:35:18.056Z,100.00
2018-09-05T05:37:47.590Z,100.00
2018-09-05T05:40:17.618Z,100.00
2018-09-05T05:42:47.278Z,100.00
2018-09-05T05:45:16.666Z,100.00
2018-09-05T05:47:46.141Z,100.00
2018-09-05T05:50:15.574Z,100.00
2018-09-05T05:52:45.569Z,100.00
2018-09-05T05:55:15.084Z,100.00
2018-09-05T05:57:44.491Z,100.00
2018-09-05T06:00:14.439Z,100.00
2018-09-05T06:02:43.764Z,100.00
2018-09-05T06:05:13.317Z,100.00
2018-09-05T06:07:43.012Z,100.00
2018-09-05T06:10:12.572Z,100.00
2018-09-05T06:12:41.959Z,100.00
2018-09-05T06:15:11.444Z,100.00
2018-09-05T06:17:40.723Z,100.00
2018-09-05T06:20:10.474Z,100.00
2018-09-05T06:22:43.364Z,100.00
2018-09-05T06:25:13.553Z,100.00
2018-09-05T06:27:43.251Z,100.00
2018-09-05T06:30:15.784Z,100.00
2018-09-05T06:32:45.258Z,100.00
2018-09-05T06:35:15.560Z,100.00
2018-09-05T06:37:45.050Z,100.00
2018-09-05T06:40:14.993Z,100.00
2018-09-05T06:42:44.463Z,100.00
2018-09-05T06:45:14.146Z,100.00
2018-09-05T06:47:43.496Z,97.62
2018-09-05T06:50:12.789Z,97.72
2018-09-05T06:52:42.240Z,97.08
2018-09-05T06:55:11.774Z,94.88
2018-09-05T06:57:42.223Z,94.81
2018-09-05T07:00:14.897Z,88.38
2018-09-05T07:02:44.616Z,88.44
2018-09-05T07:05:15.649Z,89.64
2018-09-05T07:07:45.154Z,91.12
2018-09-05T07:10:14.653Z,89.77
2018-09-05T07:12:44.163Z,89.74
2018-09-05T07:15:13.724Z,90.69
2018-09-05T07:17:43.615Z,89.30
2018-09-05T07:20:13.297Z,91.43
2018-09-05T07:22:43.466Z,90.59
2018-09-05T07:25:12.921Z,88.04
2018-09-05T07:27:42.480Z,88.91
2018-09-05T07:30:12.002Z,86.30
2018-09-05T07:32:41.376Z,87.38
2018-09-05T07:35:10.763Z,90.54
2018-09-05T07:37:40.115Z,89.57
2018-09-05T07:40:09.408Z,88.48
2018-09-05T07:42:38.716Z,89.49
2018-09-05T07:45:07.957Z,88.62
2018-09-05T07:47:37.317Z,87.44
2018-09-05T07:50:06.907Z,87.66
2018-09-05T07:52:36.262Z,81.49
2018-09-05T07:55:05.574Z,85.84
2018-09-05T07:57:34.925Z,84.66
2018-09-05T08:00:04.695Z,79.72
2018-09-05T08:02:34.039Z,79.93
2018-09-05T08:05:03.342Z,80.26
2018-09-05T08:07:32.863Z,81.64
2018-09-05T08:10:02.260Z,79.91
2018-09-05T08:12:31.592Z,78.16
2018-09-05T08:15:01.056Z,79.32
2018-09-05T08:17:30.554Z,75.16
2018-09-05T08:19:59.855Z,82.06
2018-09-05T08:22:29.247Z,81.20
2018-09-05T08:24:58.782Z,79.41
2018-09-05T08:27:28.906Z,78.28
2018-09-05T08:29:58.345Z,77.90
2018-09-05T08:32:27.817Z,77.67
2018-09-05T08:34:57.637Z,75.38
2018-09-05T08:37:26.971Z,75.60
2018-09-05T08:39:56.077Z,72.01
2018-09-05T08:42:25.529Z,71.96
2018-09-05T08:44:55.072Z,69.99
2018-09-05T08:47:24.527Z,73.00
2018-09-05T08:49:53.805Z,72.18
2018-09-05T08:52:23.231Z,74.10
2018-09-05T08:54:52.573Z,73.85
2018-09-05T08:57:26.244Z,73.14
2018-09-05T08:59:55.705Z,69.16
2018-09-05T09:02:25.201Z,71.16
2018-09-05T09:04:54.899Z,69.81
2018-09-05T09:07:24.202Z,69.80
2018-09-05T09:09:53.755Z,71.21
2018-09-05T09:12:23.240Z,66.18
2018-09-05T09:14:52.531Z,69.42
2018-09-05T09:17:21.944Z,72.19
2018-09-05T09:19:51.358Z,70.01
2018-09-05T09:22:20.632Z,71.69
2018-09-05T09:24:50.272Z,71.63
2018-09-05T09:27:19.872Z,70.02
2018-09-05T09:29:49.255Z,70.06
2018-09-05T09:32:19.268Z,73.42
2018-09-05T09:34:48.866Z,73.54
2018-09-05T09:37:18.256Z,72.97
2018-09-05T09:39:47.597Z,74.99
2018-09-05T09:42:16.721Z,75.41
2018-09-05T09:44:46.129Z,75.93
2018-09-05T09:47:15.540Z,73.01
2018-09-05T09:49:45.575Z,74.14
2018-09-05T09:52:20.299Z,66.56
2018-09-05T09:54:51.533Z,64.97
2018-09-05T09:57:23.261Z,64.31
2018-09-05T09:59:52.826Z,69.50
2018-09-05T10:02:27.537Z,61.98
2018-09-05T10:05:02.064Z,60.08
2018-09-05T10:07:36.853Z,61.97
2018-09-05T10:10:11.634Z,52.95
2018-09-05T10:12:47.133Z,58.67
2018-09-05T10:15:21.604Z,57.88
2018-09-05T10:17:56.444Z,58.70
2018-09-05T10:20:25.953Z,58.96
2018-09-05T10:22:55.300Z,58.91
2018-09-05T10:25:24.898Z,59.33
2018-09-05T10:27:54.426Z,58.42
2018-09-05T10:30:24.185Z,62.01
2018-09-05T10:32:54.261Z,60.62
2018-09-05T10:35:23.730Z,61.73
2018-09-05T10:37:53.639Z,60.17
2018-09-05T10:40:23.458Z,59.54
2018-09-05T10:42:53.428Z,57.75
2018-09-05T10:45:23.833Z,57.58
2018-09-05T10:47:55.006Z,60.20
2018-09-05T10:50:27.360Z,60.61
2018-09-05T10:52:57.630Z,55.25
2018-09-05T10:55:29.328Z,55.45
2018-09-05T10:57:59.791Z,55.96
2018-09-05T11:00:29.746Z,64.88
2018-09-05T11:02:59.363Z,63.87
2018-09-05T11:05:29.173Z,63.24
2018-09-05T11:07:59.198Z,61.16
2018-09-05T11:10:29.262Z,59.26
2018-09-05T11:12:59.205Z,57.24
2018-09-05T11:15:29.883Z,55.74
2018-09-05T11:17:59.122Z,55.85
2018-09-05T11:20:28.549Z,52.62
2018-09-05T11:22:57.883Z,55.31
2018-09-05T11:25:27.228Z,56.17
2018-09-05T11:27:57.606Z,59.36
2018-09-05T11:30:27.889Z,56.49
2018-09-05T11:32:58.498Z,60.31
2018-09-05T11:35:29.495Z,56.50
2018-09-05T11:37:59.103Z,60.95
2018-09-05T11:40:29.269Z,60.57
2018-09-05T11:42:59.121Z,60.12
2018-09-05T11:45:28.483Z,59.17
2018-09-05T11:47:58.412Z,61.63
2018-09-05T11:50:27.724Z,60.43
2018-09-05T11:52:58.405Z,63.31
2018-09-05T11:55:28.097Z,63.88
2018-09-05T11:57:57.705Z,61.87
2018-09-05T12:00:27.002Z,63.91
2018-09-05T12:02:56.502Z,65.13
2018-09-05T12:05:25.734Z,62.75
2018-09-05T12:07:55.184Z,60.55
2018-09-05T12:10:24.920Z,60.37
2018-09-05T12:12:55.316Z,55.91
2018-09-05T12:15:24.755Z,55.28
2018-09-05T12:17:54.226Z,54.75
2018-09-05T12:20:23.532Z,51.40
2018-09-05T12:23:20.395Z,50.35
2018-09-05T12:25:50.229Z,50.26
2018-09-05T12:28:19.796Z,49.78
2018-09-05T12:30:49.303Z,50.83
2018-09-05T12:33:18.942Z,49.56
2018-09-05T12:35:48.258Z,52.63
2018-09-05T12:38:17.979Z,51.04
2018-09-05T12:40:47.222Z,48.96
2018-09-05T12:43:16.865Z,49.55
2018-09-05T12:45:46.575Z,48.12
2018-09-05T12:48:16.387Z,50.69
2018-09-05T12:50:46.099Z,47.81
2018-09-05T12:53:15.707Z,48.91
2018-09-05T12:55:45.618Z,47.91
2018-09-05T12:58:15.331Z,48.84
2018-09-05T13:00:46.202Z,49.82
2018-09-05T13:03:15.827Z,49.16
2018-09-05T13:05:45.085Z,48.10
2018-09-05T13:08:14.691Z,49.77
2018-09-05T13:10:44.165Z,48.04
2018-09-05T13:13:16.046Z,50.46
2018-09-05T13:15:45.725Z,46.35
2018-09-05T13:18:15.575Z,48.13
2018-09-05T13:20:45.301Z,49.23
2018-09-05T13:23:15.791Z,45.41
2018-09-05T13:25:46.901Z,47.30
2018-09-05T13:28:16.505Z,48.45
2018-09-05T13:30:46.379Z,48.38
2018-09-05T13:33:16.399Z,47.26
2018-09-05T13:35:46.185Z,46.56
2018-09-05T13:38:16.853Z,45.60
2018-09-05T13:40:46.292Z,46.22
2018-09-05T13:43:16.151Z,49.60
2018-09-05T13:45:45.782Z,51.36
2018-09-05T13:48:16.190Z,46.98
2018-09-05T13:50:46.024Z,46.71
2018-09-05T13:53:16.839Z,47.39
2018-09-05T13:55:46.343Z,42.96
2018-09-05T13:58:15.924Z,43.73
2018-09-05T14:00:45.603Z,43.75
2018-09-05T14:03:15.814Z,48.90
2018-09-05T14:05:46.136Z,50.01
2018-09-05T14:08:16.277Z,44.70
2018-09-05T14:10:46.828Z,49.12
2018-09-05T14:13:16.347Z,46.91
2018-09-05T14:15:46.107Z,47.27
2018-09-05T14:18:16.091Z,46.23
2018-09-05T14:20:45.461Z,47.21
2018-09-05T14:23:14.872Z,46.24
2018-09-05T14:25:44.305Z,52.10
2018-09-05T14:28:14.165Z,51.73
2018-09-05T14:30:44.728Z,49.28
2018-09-05T14:33:14.654Z,48.58
2018-09-05T14:35:45.214Z,48.61
2018-09-05T14:38:15.217Z,49.90
2018-09-05T14:40:44.954Z,51.99
2018-09-05T14:43:15.468Z,51.77
2018-09-05T14:45:44.931Z,50.10
2018-09-05T14:48:16.171Z,49.28
2018-09-05T14:50:46.196Z,49.01
2018-09-05T14:53:15.479Z,50.88
2018-09-05T14:55:46.048Z,49.71
2018-09-05T14:58:15.664Z,50.13
2018-09-05T15:00:45.129Z,51.65
2018-09-05T15:03:14.777Z,50.04
2018-09-05T15:05:44.200Z,51.62
2018-09-05T15:08:13.551Z,51.56
2018-09-05T15:10:44.009Z,52.22
2018-09-05T15:13:13.915Z,52.34
2018-09-05T15:15:44.236Z,54.19
2018-09-05T15:18:14.166Z,53.22
2018-09-05T15:20:44.080Z,52.14
2018-09-05T15:23:14.226Z,52.57
2018-09-05T15:25:44.526Z,53.32
2018-09-05T15:28:14.444Z,54.69
2018-09-05T15:30:43.887Z,56.20
2018-09-05T15:33:13.350Z,55.45
2018-09-05T15:35:44.286Z,57.01
2018-09-05T15:38:14.097Z,58.36
2018-09-05T15:40:44.069Z,59.99
2018-09-05T15:43:14.856Z,64.42
2018-09-05T15:45:44.607Z,66.39
2018-09-05T15:48:14.125Z,67.21
2018-09-05T15:50:43.633Z,67.78
2018-09-05T15:53:13.222Z,70.24
2018-09-05T15:55:42.932Z,72.19
2018-09-05T15:58:12.525Z,73.55
2018-09-05T16:00:42.031Z,72.68
2018-09-05T16:03:11.512Z,73.97
2018-09-05T16:05:41.167Z,75.02
2018-09-05T16:08:10.727Z,75.80
2018-09-05T16:10:40.415Z,74.45
2018-09-05T16:13:09.876Z,76.47
2018-09-05T16:15:39.621Z,76.47
2018-09-05T16:18:09.014Z,77.16
2018-09-05T16:20:39.422Z,78.34
2018-09-05T16:23:09.721Z,77.79
2018-09-05T16:25:39.414Z,79.26
2018-09-05T16:28:13.123Z,79.93
2018-09-05T16:30:42.700Z,77.41
2018-09-05T16:33:12.281Z,77.62
2018-09-05T16:35:42.367Z,78.71
2018-09-05T16:38:12.783Z,78.66
2018-09-05T16:40:42.479Z,78.76
2018-09-05T16:43:11.986Z,77.25
2018-09-05T16:45:41.393Z,76.67
2018-09-05T16:48:11.840Z,78.05
2018-09-05T16:50:41.233Z,78.52
2018-09-05T16:53:11.109Z,79.32
2018-09-05T16:55:41.173Z,80.85
2018-09-05T16:58:10.689Z,79.78
2018-09-05T17:00:40.448Z,79.08
2018-09-05T17:03:09.952Z,79.47
2018-09-05T17:05:39.196Z,80.12
2018-09-05T17:08:08.635Z,80.49
2018-09-05T17:10:38.799Z,79.75
2018-09-05T17:13:09.092Z,79.62
2018-09-05T17:15:38.812Z,80.54
2018-09-05T17:18:08.272Z,80.70
2018-09-05T17:20:37.783Z,81.19
2018-09-05T17:23:07.122Z,81.65
2018-09-05T17:25:36.904Z,81.06
2018-09-05T17:28:06.472Z,81.66
2018-09-05T17:30:36.105Z,81.90
2018-09-05T17:33:05.407Z,81.93
2018-09-05T17:35:35.201Z,82.20
2018-09-05T17:38:04.525Z,82.90
2018-09-05T17:40:34.160Z,85.07
2018-09-05T17:43:03.976Z,84.28
2018-09-05T17:45:33.837Z,84.36
2018-09-05T17:48:05.127Z,84.36
2018-09-05T17:50:36.440Z,84.84
2018-09-05T17:53:05.840Z,84.99
2018-09-05T17:55:35.186Z,84.59
2018-09-05T17:58:05.929Z,85.64
2018-09-05T18:00:35.361Z,87.06
2018-09-05T18:03:04.887Z,87.47
2018-09-05T18:05:35.757Z,87.47
2018-09-05T18:08:05.193Z,86.83
2018-09-05T18:10:34.529Z,86.79
2018-09-05T18:13:04.766Z,86.42
2018-09-05T18:15:34.632Z,87.33
2018-09-05T18:18:04.212Z,87.50
2018-09-05T18:20:34.512Z,87.09
2018-09-05T18:23:04.041Z,87.64
2018-09-05T18:25:33.629Z,88.01
2018-09-05T18:28:03.307Z,87.94
2018-09-05T18:30:32.591Z,87.72
2018-09-05T18:33:02.047Z,87.87
2018-09-05T18:35:31.511Z,88.02
2018-09-05T18:38:01.099Z,88.28
2018-09-05T18:40:30.549Z,88.40
2018-09-05T18:43:00.433Z,87.59
2018-09-05T18:45:29.988Z,88.37
2018-09-05T18:47:59.756Z,88.59
2018-09-05T18:50:30.192Z,88.68
2018-09-05T18:53:04.871Z,87.72
2018-09-05T18:55:35.492Z,90.51
2018-09-05T18:58:05.255Z,90.20
2018-09-05T19:00:37.208Z,89.75
2018-09-05T19:03:08.709Z,90.02
2018-09-05T19:05:39.210Z,89.08
2018-09-05T19:08:09.829Z,88.52
2018-09-05T19:10:41.501Z,88.80
2018-09-05T19:13:11.005Z,88.81
2018-09-05T19:15:40.551Z,90.21
2018-09-05T19:18:10.589Z,89.58
2018-09-05T19:20:40.987Z,89.75
2018-09-05T19:23:10.482Z,89.28
2018-09-05T19:25:41.001Z,89.54
2018-09-05T19:28:10.397Z,90.58
2018-09-05T19:30:40.819Z,90.13
2018-09-05T19:33:10.828Z,91.78
2018-09-05T19:35:40.840Z,91.98
2018-09-05T19:38:11.139Z,91.31
2018-09-05T19:40:40.969Z,91.32
2018-09-05T19:43:14.633Z,90.93
2018-09-05T19:45:43.984Z,91.03
2018-09-05T19:48:15.638Z,90.12
2018-09-05T19:50:46.105Z,91.78
2018-09-05T19:53:21.329Z,92.31
2018-09-05T19:55:50.924Z,94.34
2018-09-05T19:58:21.449Z,95.29
2018-09-05T20:00:50.971Z,93.62
2018-09-05T20:03:20.928Z,93.04
2018-09-05T20:05:51.126Z,94.12
2018-09-05T20:08:21.487Z,93.21
2018-09-05T20:10:51.093Z,93.40
2018-09-05T20:13:20.959Z,93.53
2018-09-05T20:15:51.652Z,94.63
2018-09-05T20:18:21.983Z,93.58
2018-09-05T20:20:51.776Z,92.15
2018-09-05T20:23:21.382Z,93.50
2018-09-05T20:25:51.668Z,93.31
2018-09-05T20:28:23.026Z,92.85
2018-09-05T20:30:52.708Z,93.41
2018-09-05T20:33:22.373Z,92.83
2018-09-05T20:35:52.629Z,93.58
2018-09-05T20:38:22.253Z,94.42
2018-09-05T20:40:52.068Z,96.40
2018-09-05T20:43:21.343Z,94.45
2018-09-05T20:45:50.863Z,94.80
2018-09-05T20:48:20.172Z,95.28
2018-09-05T20:50:49.499Z,94.30
2018-09-05T20:53:18.891Z,94.43
2018-09-05T20:55:48.415Z,95.64
2018-09-05T20:58:18.617Z,94.69
2018-09-05T21:00:48.478Z,95.87
2018-09-05T21:03:17.873Z,95.41
2018-09-05T21:05:47.951Z,94.93
2018-09-05T21:08:17.327Z,96.20
2018-09-05T21:10:46.788Z,97.59
2018-09-05T21:13:16.164Z,97.80
2018-09-05T21:15:45.659Z,96.42
2018-09-05T21:18:15.164Z,97.15
2018-09-05T21:20:44.407Z,96.69
2018-09-05T21:23:14.427Z,97.16
2018-09-05T21:25:45.610Z,96.68
2018-09-05T21:28:17.703Z,96.91
2018-09-05T21:30:47.091Z,96.00
2018-09-05T21:33:18.064Z,95.66
2018-09-05T21:35:47.435Z,96.28
2018-09-05T21:38:16.847Z,96.29
2018-09-05T21:40:47.432Z,95.76
2018-09-05T21:43:17.582Z,97.47
2018-09-05T21:45:48.057Z,97.95
2018-09-05T21:48:18.504Z,98.49
2018-09-05T21:50:48.136Z,99.55
2018-09-05T21:53:18.089Z,99.01
2018-09-05T21:55:47.492Z,98.86
2018-09-05T21:58:16.830Z,98.29
2018-09-05T22:00:47.677Z,98.51
2018-09-05T22:03:17.604Z,97.74
2018-09-05T22:05:48.080Z,97.38
2018-09-05T22:08:17.961Z,97.02
2018-09-05T22:10:47.924Z,97.60
2018-09-05T22:13:18.295Z,96.63
2018-09-05T22:15:48.630Z,97.83
2018-09-05T22:18:18.785Z,97.89
2018-09-05T22:20:48.021Z,96.54
2018-09-05T22:23:17.380Z,98.44
2018-09-05T22:25:46.623Z,98.83
2018-09-05T22:28:16.047Z,98.90
2018-09-05T22:30:45.589Z,98.29
2018-09-05T22:33:16.093Z,97.92
2018-09-05T22:35:46.941Z,98.57
2018-09-05T22:38:16.953Z,97.83
2018-09-05T22:40:53.699Z,98.24
2018-09-05T22:43:35.160Z,98.40
2018-09-05T22:46:15.109Z,97.26
2018-09-05T22:49:11.754Z,98.34
2018-09-05T22:52:24.886Z,99.06
2018-09-05T22:56:41.505Z,97.85
2018-09-05T23:00:29.564Z,97.48
2018-09-05T23:03:09.603Z,98.40
2018-09-05T23:05:50.790Z,98.49
2018-09-05T23:08:40.720Z,99.40
2018-09-05T23:11:21.684Z,99.01
2018-09-05T23:14:01.947Z,98.51
2018-09-05T23:16:43.135Z,97.43
2018-09-05T23:19:48.148Z,97.85
2018-09-05T23:22:17.513Z,98.48
2018-09-05T23:24:47.016Z,98.77
2018-09-05T23:27:16.331Z,98.34
2018-09-05T23:29:45.985Z,97.24
2018-09-05T23:32:16.513Z,98.72
2018-09-05T23:34:46.270Z,97.57
2018-09-05T23:37:15.913Z,98.55
2018-09-05T23:39:45.395Z,98.43
2018-09-05T23:42:14.812Z,99.39
2018-09-05T23:44:44.364Z,98.44
2018-09-05T23:47:13.886Z,99.94
2018-09-05T23:49:43.348Z,99.39
2018-09-05T23:52:12.824Z,99.86
2018-09-05T23:54:42.459Z,99.68
2018-09-05T23:57:11.734Z,99.16
2018-09-05T23:59:41.068Z,100.00
